Time;durP1;ratioP1;P1;durP2;ratioP2;P2;SDS_P1;SDS_P2;PMS_P1;PMS_P2;Temp;Humidity;BMP_temperature;BMP_pressure;BME280_temperature;BME280_humidity;BME280_pressure;Samples;Min_cycle;Max_cycle;Signal;HPM_P1;HPM_P2
2024/04/10 00:00:04;;;;;;;3.88;1.55;;;21.80;62.20;;;;;;5332530;26;20004;-69
2024/04/10 00:03:59;;;;;;;2.88;1.70;;;21.80;62.20;;;;;;5357816;26;20401;-55
2024/04/10 00:06:25;;;;;;;1.48;1.20;;;21.80;62.30;;;;;;5359273;26;20036;-51
2024/04/10 00:08:50;;;;;;;2.67;1.50;;;21.80;62.10;;;;;;5355143;26;20083;-53
2024/04/10 00:11:21;;;;;;;2.05;1.08;;;21.80;62.20;;;;;;5356395;26;20735;-55
2024/04/10 00:13:46;;;;;;;2.20;1.15;;;21.70;62.00;;;;;;5357873;26;19997;-54
2024/04/10 00:16:12;;;;;;;2.08;1.35;;;21.80;62.30;;;;;;5362428;26;20007;-52
2024/04/10 00:18:38;;;;;;;1.05;0.82;;;21.70;62.10;;;;;;5352269;26;20449;-53
2024/04/10 00:21:03;;;;;;;2.80;1.23;;;21.80;62.20;;;;;;5356508;26;20019;-53
2024/04/10 00:23:29;;;;;;;1.80;1.15;;;21.70;62.30;;;;;;5349798;26;20360;-52
2024/04/10 00:26:00;;;;;;;3.85;1.30;;;21.70;62.00;;;;;;5361528;26;20001;-52
2024/04/10 00:28:28;;;;;;;2.65;1.15;;;21.70;62.10;;;;;;5346241;26;20040;-51
2024/04/10 00:30:53;;;;;;;1.10;0.73;;;21.70;62.20;;;;;;5366058;26;20001;-50
2024/04/10 00:33:19;;;;;;;1.25;0.90;;;21.70;62.20;;;;;;5364403;26;20037;-54
2024/04/10 00:35:55;;;;;;;2.95;0.98;;;21.70;62.10;;;;;;5352363;26;20004;-56
2024/04/10 00:38:21;;;;;;;1.98;0.90;;;21.70;62.10;;;;;;5356014;26;20679;-51
2024/04/10 00:41:01;;;;;;;1.33;0.77;;;21.70;62.20;;;;;;5356101;26;20014;-54
2024/04/10 00:43:27;;;;;;;2.85;1.10;;;21.70;62.10;;;;;;5351150;26;20077;-54
2024/04/10 00:45:58;;;;;;;2.00;0.98;;;21.70;62.20;;;;;;5350519;26;20007;-53
2024/04/10 00:48:24;;;;;;;2.15;1.02;;;21.70;62.30;;;;;;5351495;26;20104;-51
2024/04/10 00:50:51;;;;;;;1.63;0.90;;;21.70;62.10;;;;;;5343678;26;20009;-61
2024/04/10 00:53:17;;;;;;;0.98;0.60;;;21.70;62.20;;;;;;5355548;26;20012;-54
2024/04/10 00:55:43;;;;;;;1.08;0.80;;;21.70;62.30;;;;;;5360759;26;20089;-53
2024/04/10 00:58:10;;;;;;;0.88;0.75;;;21.70;62.10;;;;;;5359107;26;20027;-51
2024/04/10 01:00:36;;;;;;;1.45;1.10;;;21.70;62.20;;;;;;5357204;26;20012;-51
2024/04/10 01:03:01;;;;;;;0.52;0.47;;;21.70;62.40;;;;;;5359982;26;20030;-54
2024/04/10 01:05:27;;;;;;;1.65;0.70;;;21.70;62.20;;;;;;5333399;26;21096;-53
2024/04/10 01:07:52;;;;;;;1.27;0.60;;;21.70;62.20;;;;;;5337145;26;20042;-53
2024/04/10 01:10:18;;;;;;;2.85;0.90;;;21.70;62.10;;;;;;5345733;26;20509;-52
2024/04/10 01:12:45;;;;;;;2.63;0.88;;;21.70;62.20;;;;;;5351075;26;19997;-53
2024/04/10 01:15:11;;;;;;;1.45;0.50;;;21.70;62.20;;;;;;5335774;26;20059;-53
2024/04/10 01:17:37;;;;;;;0.93;0.50;;;21.70;62.40;;;;;;5330176;26;19992;-51
2024/04/10 01:20:07;;;;;;;1.25;0.60;;;21.70;62.10;;;;;;5326430;26;20004;-51
2024/04/10 01:22:33;;;;;;;1.67;0.70;;;21.70;62.30;;;;;;5333555;26;20340;-51
2024/04/10 01:24:59;;;;;;;1.40;0.60;;;21.70;62.10;;;;;;5322230;26;20013;-51
2024/04/10 01:27:24;;;;;;;2.38;0.70;;;21.70;62.30;;;;;;5339045;26;20001;-52
2024/04/10 01:29:50;;;;;;;1.73;0.60;;;21.70;62.20;;;;;;5343086;26;19997;-54
2024/04/10 01:32:15;;;;;;;1.55;0.73;;;21.60;62.10;;;;;;5343878;26;20405;-53
2024/04/10 01:34:43;;;;;;;1.42;0.70;;;21.60;62.20;;;;;;5335054;26;20049;-54
2024/04/10 01:37:08;;;;;;;0.73;0.50;;;21.60;62.10;;;;;;5340149;26;20005;-54
2024/04/10 01:39:34;;;;;;;1.20;0.50;;;21.60;62.10;;;;;;5331619;26;20012;-52
2024/04/10 01:41:59;;;;;;;1.85;0.50;;;21.60;62.20;;;;;;5336915;26;20011;-54
2024/04/10 01:44:25;;;;;;;1.25;0.60;;;21.60;62.10;;;;;;5339256;26;20020;-51
2024/04/10 01:46:52;;;;;;;1.52;0.50;;;21.60;62.10;;;;;;5342159;26;20016;-54
2024/04/10 01:49:18;;;;;;;0.80;0.60;;;21.60;62.20;;;;;;5331460;26;20617;-51
2024/04/10 01:51:43;;;;;;;1.90;0.60;;;21.60;62.20;;;;;;5336565;26;20000;-53
2024/04/10 01:54:09;;;;;;;0.55;0.40;;;21.60;62.20;;;;;;5337914;26;20001;-55
2024/04/10 01:56:34;;;;;;;0.90;0.50;;;21.60;62.10;;;;;;5342652;26;20031;-55
2024/04/10 01:58:59;;;;;;;0.50;0.32;;;21.60;62.20;;;;;;5340944;26;20001;-52
2024/04/10 02:01:25;;;;;;;0.95;0.50;;;21.60;62.20;;;;;;5337956;26;20449;-51
2024/04/10 02:03:50;;;;;;;1.27;0.68;;;21.60;62.10;;;;;;5341524;26;20049;-55
2024/04/10 02:06:16;;;;;;;1.25;0.60;;;21.60;62.20;;;;;;5347052;26;20004;-53
2024/04/10 02:08:41;;;;;;;0.65;0.50;;;21.60;62.20;;;;;;5339746;26;20016;-53
2024/04/10 02:11:26;;;;;;;2.17;0.80;;;21.60;62.20;;;;;;5334369;26;20070;-53
2024/04/10 02:13:52;;;;;;;1.60;0.50;;;21.60;62.20;;;;;;5340279;26;20015;-52
2024/04/10 02:16:19;;;;;;;1.20;0.55;;;21.60;62.20;;;;;;5356274;26;20366;-49
2024/04/10 02:18:44;;;;;;;1.10;0.75;;;21.60;62.10;;;;;;5346369;26;20086;-62
2024/04/10 02:21:10;;;;;;;1.80;0.50;;;21.50;62.60;;;;;;5352992;26;20450;-54
2024/04/10 02:23:35;;;;;;;1.05;0.50;;;21.50;62.00;;;;;;5336793;26;20000;-54
2024/04/10 02:26:11;;;;;;;1.33;0.68;;;21.50;62.20;;;;;;5341874;26;20008;-54
2024/04/10 02:28:36;;;;;;;0.82;0.45;;;21.50;62.10;;;;;;5332158;26;20000;-53
2024/04/10 02:31:03;;;;;;;0.60;0.50;;;21.50;62.20;;;;;;5341120;26;20077;-51
2024/04/10 02:33:33;;;;;;;0.90;0.50;;;21.50;62.20;;;;;;5345662;26;20004;-53
2024/04/10 02:35:58;;;;;;;1.17;0.40;;;21.50;62.20;;;;;;5357235;26;20012;-52
2024/04/10 02:38:24;;;;;;;1.20;0.68;;;21.50;62.10;;;;;;5341910;26;20000;-55
2024/04/10 02:40:49;;;;;;;0.55;0.40;;;21.50;62.10;;;;;;5349079;26;20013;-55
2024/04/10 02:43:15;;;;;;;1.38;0.63;;;21.50;62.10;;;;;;5336749;26;20338;-58
2024/04/10 02:45:40;;;;;;;2.15;0.47;;;21.50;62.10;;;;;;5344445;26;20011;-50
2024/04/10 02:48:06;;;;;;;2.15;0.73;;;21.50;62.20;;;;;;5402868;21;20011;-48
2024/04/10 02:50:32;;;;;;;1.30;0.45;;;21.50;62.10;;;;;;5400095;26;20002;-47
2024/04/10 02:52:58;;;;;;;0.80;0.60;;;21.50;62.70;;;;;;5388485;26;20445;-49
2024/04/10 02:55:24;;;;;;;2.00;0.70;;;21.50;62.20;;;;;;5378696;26;20003;-51
2024/04/10 02:57:49;;;;;;;1.17;0.88;;;21.50;62.10;;;;;;5396874;26;19999;-49
2024/04/10 03:00:15;;;;;;;1.00;0.82;;;21.50;62.20;;;;;;5374140;26;20426;-55
2024/04/10 03:02:41;;;;;;;1.25;0.68;;;21.50;62.20;;;;;;5329601;26;20867;-48
2024/04/10 03:05:07;;;;;;;0.90;0.57;;;21.50;62.20;;;;;;5355593;26;19993;-54
2024/04/10 03:07:32;;;;;;;0.90;0.50;;;21.50;62.20;;;;;;5347272;26;20073;-52
2024/04/10 03:09:58;;;;;;;0.88;0.47;;;21.40;61.90;;;;;;5345738;26;20024;-48
2024/04/10 03:12:23;;;;;;;1.23;0.60;;;21.40;62.10;;;;;;5348537;26;20011;-55
2024/04/10 03:14:49;;;;;;;1.15;0.50;;;21.50;62.00;;;;;;5365318;26;20000;-56
2024/04/10 03:17:16;;;;;;;1.23;0.60;;;21.40;62.00;;;;;;5359749;26;20097;-48
2024/04/10 03:19:41;;;;;;;0.85;0.40;;;21.40;62.00;;;;;;5345544;26;19997;-52
2024/04/10 03:22:08;;;;;;;4.25;0.65;;;21.40;62.10;;;;;;5365265;26;20349;-57
2024/04/10 03:24:34;;;;;;;0.70;0.55;;;21.40;62.10;;;;;;5360213;26;20012;-50
2024/04/10 03:26:59;;;;;;;1.58;0.45;;;21.40;62.20;;;;;;5372178;26;20081;-57
2024/04/10 03:29:26;;;;;;;1.35;0.68;;;21.40;62.00;;;;;;5362021;26;20429;-55
2024/04/10 03:31:53;;;;;;;2.05;0.60;;;21.40;62.00;;;;;;5355819;26;20041;-54
2024/04/10 03:34:18;;;;;;;1.58;0.57;;;21.40;62.20;;;;;;5351717;26;20007;-48
2024/04/10 03:36:44;;;;;;;0.77;0.45;;;21.40;62.20;;;;;;5352165;26;19997;-54
2024/04/10 03:39:11;;;;;;;0.88;0.50;;;21.40;62.00;;;;;;5348465;26;20000;-56
2024/04/10 03:41:37;;;;;;;0.95;0.70;;;21.40;61.90;;;;;;5364750;26;20027;-50
2024/04/10 03:44:05;;;;;;;1.08;0.77;;;21.40;62.00;;;;;;5356589;26;20329;-52
2024/04/10 03:46:32;;;;;;;1.55;0.50;;;21.40;62.80;;;;;;5363083;26;19999;-50
2024/04/10 03:48:57;;;;;;;1.92;0.73;;;21.40;62.20;;;;;;5358464;26;19993;-49
2024/04/10 03:51:23;;;;;;;1.02;0.63;;;21.40;62.00;;;;;;5361320;26;20706;-52
2024/04/10 03:53:48;;;;;;;1.17;0.65;;;21.40;62.00;;;;;;5359363;26;19996;-51
2024/04/10 03:56:14;;;;;;;1.23;0.57;;;21.30;62.00;;;;;;5359095;26;20019;-55
2024/04/10 03:58:39;;;;;;;1.85;0.88;;;21.30;61.90;;;;;;5351331;26;20070;-48
2024/04/10 04:01:05;;;;;;;1.20;0.52;;;21.40;62.00;;;;;;5350580;26;19996;-50
2024/04/10 04:03:30;;;;;;;0.82;0.50;;;21.40;62.10;;;;;;5366801;26;20006;-55
2024/04/10 04:05:56;;;;;;;0.68;0.57;;;21.30;62.00;;;;;;5348234;26;20009;-53
2024/04/10 04:08:21;;;;;;;1.40;0.60;;;21.30;62.00;;;;;;5356298;26;20039;-49
2024/04/10 04:10:47;;;;;;;1.23;0.50;;;21.30;61.90;;;;;;5346239;26;20028;-51
2024/04/10 04:13:13;;;;;;;0.80;0.50;;;21.30;61.90;;;;;;5364633;26;19996;-55
2024/04/10 04:15:40;;;;;;;2.17;0.98;;;21.30;62.00;;;;;;5364683;26;20000;-51
2024/04/10 04:18:06;;;;;;;0.82;0.65;;;21.30;62.00;;;;;;5355388;26;20012;-49
2024/04/10 04:20:32;;;;;;;1.35;0.60;;;21.30;62.10;;;;;;5351188;26;20011;-52
2024/04/10 04:22:57;;;;;;;1.08;0.68;;;21.30;62.00;;;;;;5353951;26;19992;-54
2024/04/10 04:25:23;;;;;;;1.50;0.65;;;21.30;61.90;;;;;;5353540;26;20016;-55
2024/04/10 04:27:48;;;;;;;0.75;0.60;;;21.30;62.00;;;;;;5370406;26;19997;-56
2024/04/10 04:30:14;;;;;;;1.13;0.60;;;21.30;62.00;;;;;;5346287;26;19996;-49
2024/04/10 04:32:39;;;;;;;2.05;0.75;;;21.30;62.00;;;;;;5371889;26;20007;-53
2024/04/10 04:35:05;;;;;;;1.88;0.90;;;21.30;62.00;;;;;;5365613;26;19996;-52
2024/04/10 04:37:31;;;;;;;1.10;0.63;;;21.30;62.20;;;;;;5371596;26;20757;-54
2024/04/10 04:39:56;;;;;;;2.38;1.10;;;21.30;62.00;;;;;;5341936;26;20011;-49
2024/04/10 04:42:22;;;;;;;2.35;0.82;;;21.30;62.00;;;;;;5334788;26;20620;-54
2024/04/10 04:44:47;;;;;;;1.27;0.88;;;21.30;62.00;;;;;;5345874;26;20104;-56
2024/04/10 04:47:14;;;;;;;1.70;0.82;;;21.30;62.00;;;;;;5334202;26;20009;-59
2024/04/10 04:49:40;;;;;;;3.20;0.90;;;21.30;62.00;;;;;;5344205;26;20011;-58
2024/04/10 04:52:05;;;;;;;2.63;0.90;;;21.30;62.10;;;;;;5339697;26;20013;-57
2024/04/10 04:54:31;;;;;;;1.77;1.15;;;21.30;62.00;;;;;;5339257;26;20005;-50
2024/04/10 04:56:56;;;;;;;2.53;1.13;;;21.30;62.00;;;;;;5342386;26;20017;-56
2024/04/10 04:59:22;;;;;;;1.67;1.17;;;21.30;62.10;;;;;;5361341;26;20366;-57
2024/04/10 05:01:47;;;;;;;3.10;1.08;;;21.30;62.10;;;;;;5361399;26;20010;-57
2024/04/10 05:06:57;;;;;;;1.98;1.30;;;21.20;62.00;;;;;;5345976;26;20012;-58
2024/04/10 05:09:22;;;;;;;1.55;1.20;;;21.20;62.00;;;;;;5344103;26;20001;-53
2024/04/10 05:11:48;;;;;;;3.33;1.23;;;21.20;61.90;;;;;;5355670;26;20457;-52
2024/04/10 05:14:13;;;;;;;2.22;1.48;;;21.20;62.00;;;;;;5366895;26;20149;-50
2024/04/10 05:16:39;;;;;;;2.17;1.20;;;21.20;62.00;;;;;;5363245;26;20004;-50
2024/04/10 05:19:06;;;;;;;2.30;1.50;;;21.20;62.00;;;;;;5347703;26;20016;-56
2024/04/10 05:21:32;;;;;;;3.13;1.27;;;21.20;62.00;;;;;;5364261;26;20000;-55
2024/04/10 05:23:57;;;;;;;2.92;1.50;;;21.20;62.00;;;;;;5353274;26;20017;-50
2024/04/10 05:26:23;;;;;;;2.65;1.25;;;21.20;62.00;;;;;;5375009;26;20094;-54
2024/04/10 05:28:48;;;;;;;2.17;1.55;;;21.20;62.00;;;;;;5352328;26;19999;-49
2024/04/10 05:31:14;;;;;;;1.98;1.15;;;21.20;62.00;;;;;;5355422;26;20174;-57
2024/04/10 05:33:39;;;;;;;2.78;1.20;;;21.10;62.00;;;;;;5369685;26;20011;-54
2024/04/10 05:36:05;;;;;;;2.28;1.23;;;21.20;62.10;;;;;;5348326;26;20005;-57
2024/04/10 05:38:32;;;;;;;2.72;1.45;;;21.20;62.10;;;;;;5362301;26;19999;-58
2024/04/10 05:40:57;;;;;;;2.15;1.13;;;21.20;62.20;;;;;;5359831;26;20469;-56
2024/04/10 05:43:23;;;;;;;3.00;1.67;;;21.20;62.20;;;;;;5351627;26;20039;-57
2024/04/10 05:45:56;;;;;;;5.28;1.60;;;21.20;62.20;;;;;;5354556;26;20000;-49
2024/04/10 05:48:22;;;;;;;2.30;1.75;;;21.20;62.20;;;;;;5367239;26;20007;-54
2024/04/10 05:50:47;;;;;;;5.25;2.03;;;21.20;62.30;;;;;;5351390;26;20007;-55
2024/04/10 05:53:13;;;;;;;6.15;2.97;;;21.20;62.30;;;;;;5367457;26;20040;-52
2024/04/10 05:55:39;;;;;;;11.52;6.00;;;21.20;62.30;;;;;;5366294;26;20015;-54
2024/04/10 05:58:04;;;;;;;20.90;9.50;;;21.20;62.30;;;;;;5344208;26;20015;-52
2024/04/10 06:00:31;;;;;;;26.88;12.32;;;21.20;62.30;;;;;;5360312;26;20011;-52
2024/04/10 06:02:56;;;;;;;32.22;15.38;;;21.20;62.30;;;;;;5345186;26;20009;-51
2024/04/10 06:05:23;;;;;;;30.88;16.33;;;21.20;62.30;;;;;;5341672;26;20008;-55
2024/04/10 06:07:49;;;;;;;31.92;20.05;;;21.20;62.30;;;;;;5333542;26;19996;-54
2024/04/10 06:10:19;;;;;;;39.22;23.35;;;21.20;62.30;;;;;;5331448;26;20016;-49
2024/04/10 06:12:48;;;;;;;41.55;22.15;;;21.20;62.30;;;;;;5315632;26;20446;-53
2024/04/10 06:15:13;;;;;;;39.42;23.38;;;21.20;62.30;;;;;;5243287;26;159054;-54
2024/04/10 06:17:39;;;;;;;48.00;24.63;;;21.20;62.30;;;;;;5250200;26;20080;-57
2024/04/10 06:20:06;;;;;;;44.72;25.33;;;21.20;62.40;;;;;;5251798;26;19998;-57
2024/04/10 06:22:31;;;;;;;45.13;26.80;;;21.20;62.30;;;;;;5244393;26;20002;-51
2024/04/10 06:24:57;;;;;;;51.40;27.25;;;21.20;62.40;;;;;;5250416;26;20010;-51
2024/04/10 06:27:22;;;;;;;46.22;26.90;;;21.10;62.30;;;;;;5250913;26;21144;-53
2024/04/10 06:29:48;;;;;;;46.20;28.33;;;21.20;62.30;;;;;;5249220;26;20456;-49
2024/04/10 06:32:14;;;;;;;46.15;27.02;;;21.20;62.30;;;;;;5251449;26;19998;-56
2024/04/10 06:34:40;;;;;;;50.38;27.25;;;21.20;62.30;;;;;;5249267;26;20134;-56
2024/04/10 06:37:06;;;;;;;51.05;29.25;;;21.20;62.30;;;;;;5248778;26;20448;-57
2024/04/10 06:39:32;;;;;;;49.85;27.98;;;21.20;62.30;;;;;;5249613;26;20006;-56
2024/04/10 06:41:58;;;;;;;48.90;26.98;;;21.20;62.30;;;;;;5250084;26;20036;-52
2024/04/10 06:44:23;;;;;;;46.40;27.63;;;21.20;62.30;;;;;;5249150;26;20056;-52
2024/04/10 06:46:49;;;;;;;47.53;27.17;;;21.20;62.30;;;;;;5249823;26;19994;-53
2024/04/10 06:49:15;;;;;;;46.65;27.20;;;21.10;62.30;;;;;;5250073;26;20066;-60
2024/04/10 06:51:40;;;;;;;47.13;26.90;;;21.20;62.30;;;;;;5250341;26;20006;-58
2024/04/10 06:54:05;;;;;;;43.60;24.77;;;21.20;62.30;;;;;;5248278;26;20013;-54
2024/04/10 06:56:31;;;;;;;45.15;26.42;;;21.10;62.30;;;;;;5249683;26;20657;-57
2024/04/10 06:58:58;;;;;;;44.55;26.30;;;21.20;62.30;;;;;;5250063;26;20713;-51
2024/04/10 07:01:24;;;;;;;43.65;25.50;;;21.20;62.30;;;;;;5248944;26;20010;-57
2024/04/10 07:03:49;;;;;;;42.42;25.48;;;21.20;62.40;;;;;;5246325;26;20002;-58
2024/04/10 07:06:17;;;;;;;43.92;24.95;;;21.20;62.30;;;;;;5251790;26;20020;-58
2024/04/10 07:08:44;;;;;;;40.42;23.30;;;21.20;62.30;;;;;;5251209;26;20029;-55
2024/04/10 07:11:11;;;;;;;40.50;23.13;;;21.20;62.30;;;;;;5249067;26;20022;-55
2024/04/10 07:13:53;;;;;;;36.97;23.02;;;21.20;62.40;;;;;;5249429;26;19998;-51
2024/04/10 07:16:20;;;;;;;39.58;22.30;;;21.20;62.30;;;;;;5250483;26;20087;-57
2024/04/10 07:18:46;;;;;;;37.13;21.02;;;21.10;62.30;;;;;;5251006;26;20006;-56
2024/04/10 07:21:13;;;;;;;36.95;21.05;;;21.20;62.30;;;;;;5250133;26;20057;-55
2024/04/10 07:23:40;;;;;;;38.60;22.52;;;21.20;62.30;;;;;;5249139;26;20002;-55
2024/04/10 07:26:12;;;;;;;36.65;20.67;;;21.20;62.40;;;;;;5246509;26;20479;-51
2024/04/10 07:28:40;;;;;;;31.75;18.98;;;21.20;62.40;;;;;;5248981;26;20002;-55
2024/04/10 07:31:07;;;;;;;35.95;19.65;;;21.20;62.40;;;;;;5250215;26;20017;-58
2024/04/10 07:33:33;;;;;;;31.60;20.73;;;21.10;62.30;;;;;;5249638;26;20757;-57
2024/04/10 07:36:17;;;;;;;32.17;19.27;;;21.20;62.40;;;;;;5245103;26;20010;-54
2024/04/10 07:38:44;;;;;;;32.25;18.27;;;21.10;62.30;;;;;;5247673;26;20016;-54
2024/04/10 07:41:09;;;;;;;28.65;18.52;;;21.10;62.30;;;;;;5247199;26;20013;-52
2024/04/10 07:43:36;;;;;;;28.00;16.73;;;21.10;62.30;;;;;;5249911;26;20002;-56
2024/04/10 07:46:11;;;;;;;28.80;17.13;;;21.10;62.30;;;;;;5251900;26;19998;-52
2024/04/10 07:48:38;;;;;;;31.40;17.65;;;21.10;62.30;;;;;;5243395;26;19999;-50
2024/04/10 07:51:07;;;;;;;27.10;16.77;;;21.10;62.30;;;;;;5249407;26;20038;-54
2024/04/10 07:53:34;;;;;;;26.92;16.23;;;21.10;62.30;;;;;;5250976;26;20009;-56
2024/04/10 07:56:00;;;;;;;25.65;14.90;;;21.10;62.30;;;;;;5243512;26;20053;-52
2024/04/10 07:58:25;;;;;;;23.77;14.82;;;21.10;62.30;;;;;;5251437;26;19995;-54
2024/04/10 08:00:56;;;;;;;23.48;14.48;;;21.10;62.20;;;;;;5250210;26;20004;-55
2024/04/10 08:03:25;;;;;;;26.40;15.27;;;21.10;62.20;;;;;;5252020;26;20077;-51
2024/04/10 08:05:51;;;;;;;20.98;14.27;;;21.10;62.20;;;;;;5249693;26;20003;-56
2024/04/10 08:08:18;;;;;;;23.60;13.52;;;21.10;62.20;;;;;;5253085;26;20042;-56
2024/04/10 08:10:43;;;;;;;21.17;13.73;;;21.10;62.30;;;;;;5253519;26;20083;-55
2024/04/10 08:13:10;;;;;;;20.25;13.60;;;21.10;62.30;;;;;;5250074;26;20014;-55
2024/04/10 08:15:36;;;;;;;20.88;12.38;;;21.10;62.30;;;;;;5249396;26;20014;-54
2024/04/10 08:18:01;;;;;;;22.98;13.80;;;21.10;62.30;;;;;;5249947;26;20012;-56
2024/04/10 08:20:27;;;;;;;21.75;12.63;;;21.10;62.30;;;;;;5249032;26;20091;-51
2024/04/10 08:22:52;;;;;;;19.95;11.05;;;21.10;62.30;;;;;;5247403;26;20002;-51
2024/04/10 08:25:18;;;;;;;16.48;11.05;;;21.10;62.30;;;;;;5253574;26;20006;-51
2024/04/10 08:27:43;;;;;;;16.00;10.85;;;21.10;62.20;;;;;;5254476;26;20056;-56
2024/04/10 08:30:09;;;;;;;18.75;11.20;;;21.10;62.30;;;;;;5250866;26;20006;-52
2024/04/10 08:32:35;;;;;;;15.80;9.73;;;21.10;62.20;;;;;;5251216;26;20842;-53
2024/04/10 08:35:01;;;;;;;15.13;10.15;;;21.10;62.20;;;;;;5252554;26;21165;-56
2024/04/10 08:37:27;;;;;;;16.63;9.63;;;21.10;62.20;;;;;;5254089;26;20014;-50
2024/04/10 08:39:53;;;;;;;15.77;10.05;;;21.10;62.20;;;;;;5252450;26;20339;-52
2024/04/10 08:42:19;;;;;;;14.85;9.50;;;21.10;62.20;;;;;;5251195;26;20006;-57
2024/04/10 08:44:46;;;;;;;13.20;8.40;;;21.10;62.20;;;;;;5253549;26;19998;-53
2024/04/10 08:47:12;;;;;;;13.10;8.65;;;21.10;62.20;;;;;;5251580;26;19995;-56
2024/04/10 08:49:39;;;;;;;13.82;8.15;;;21.10;62.20;;;;;;5251831;26;19999;-54
2024/04/10 08:52:07;;;;;;;13.10;8.38;;;21.10;62.20;;;;;;5252293;26;20002;-56
2024/04/10 08:54:35;;;;;;;11.80;7.43;;;21.10;62.10;;;;;;5252156;26;20017;-56
2024/04/10 08:57:01;;;;;;;11.00;7.68;;;21.10;62.20;;;;;;5251315;26;20014;-56
2024/04/10 08:59:31;;;;;;;13.02;7.78;;;21.10;62.20;;;;;;5248564;26;20006;-52
2024/04/10 09:01:57;;;;;;;11.05;7.18;;;21.10;62.10;;;;;;5249776;26;20003;-55
2024/04/10 09:04:24;;;;;;;12.75;7.22;;;21.10;62.10;;;;;;5253718;26;20454;-54
2024/04/10 09:06:59;;;;;;;12.13;7.35;;;21.00;62.10;;;;;;5247519;26;20013;-54
2024/04/10 09:09:24;;;;;;;10.85;6.65;;;21.10;62.20;;;;;;5253058;26;20009;-55
2024/04/10 09:11:51;;;;;;;10.85;6.30;;;21.10;62.20;;;;;;5250922;26;19994;-49
2024/04/10 09:14:17;;;;;;;10.68;6.80;;;21.10;62.10;;;;;;5251123;26;19998;-55
2024/04/10 09:16:43;;;;;;;10.07;5.93;;;21.10;62.10;;;;;;5255824;26;19998;-56
2024/04/10 09:19:16;;;;;;;8.25;5.72;;;21.10;62.20;;;;;;5259187;26;19998;-56
2024/04/10 09:21:44;;;;;;;8.90;5.28;;;21.10;62.10;;;;;;5257326;26;20550;-49
2024/04/10 09:24:10;;;;;;;8.73;4.80;;;21.10;62.10;;;;;;5258913;26;20002;-54
2024/04/10 09:26:38;;;;;;;10.30;5.63;;;21.10;62.10;;;;;;5256572;26;20046;-51
2024/04/10 09:29:05;;;;;;;11.13;6.43;;;21.10;62.20;;;;;;5250941;26;20002;-55
2024/04/10 09:31:31;;;;;;;10.27;5.40;;;21.10;62.20;;;;;;5257781;26;20016;-52
2024/04/10 09:33:57;;;;;;;8.90;4.80;;;21.10;62.10;;;;;;5259587;26;20080;-52
2024/04/10 09:36:23;;;;;;;6.50;4.75;;;21.10;62.00;;;;;;5262360;26;20407;-50
2024/04/10 09:38:50;;;;;;;8.43;4.63;;;21.10;62.00;;;;;;5262607;26;20017;-50
2024/04/10 09:41:16;;;;;;;8.30;4.47;;;21.10;61.90;;;;;;5262094;26;20010;-54
2024/04/10 09:43:43;;;;;;;6.03;4.07;;;21.10;61.90;;;;;;5260269;26;20002;-55
2024/04/10 09:46:09;;;;;;;8.32;4.15;;;21.10;61.90;;;;;;5264050;26;20375;-53
2024/04/10 09:48:37;;;;;;;6.78;4.05;;;21.10;62.00;;;;;;5264663;26;20006;-50
2024/04/10 09:51:04;;;;;;;7.45;4.18;;;21.10;62.00;;;;;;5261706;26;20002;-55
2024/04/10 09:53:35;;;;;;;7.78;4.70;;;21.10;62.00;;;;;;5263263;26;20006;-55
2024/04/10 09:56:05;;;;;;;7.10;3.88;;;21.10;62.00;;;;;;5263574;26;20109;-50
2024/04/10 09:58:34;;;;;;;7.95;4.32;;;21.10;62.00;;;;;;5263355;26;19999;-49
2024/04/10 10:01:03;;;;;;;6.53;3.95;;;21.10;62.00;;;;;;5262134;26;20002;-52
2024/04/10 10:03:30;;;;;;;8.65;4.13;;;21.10;62.00;;;;;;5258905;26;20020;-51
2024/04/10 10:06:06;;;;;;;5.28;3.30;;;21.10;61.90;;;;;;5261579;26;20002;-51
2024/04/10 10:08:33;;;;;;;6.10;3.38;;;21.10;62.00;;;;;;5261208;26;20017;-58
2024/04/10 10:10:59;;;;;;;6.15;3.92;;;21.10;62.10;;;;;;5262635;26;20021;-59
2024/04/10 10:13:28;;;;;;;5.93;3.80;;;21.10;62.10;;;;;;5263310;26;20034;-54
2024/04/10 10:16:02;;;;;;;6.63;3.42;;;21.10;62.10;;;;;;5262926;26;20010;-54
2024/04/10 10:18:29;;;;;;;5.43;3.60;;;21.10;62.00;;;;;;5265315;26;20002;-53
2024/04/10 10:21:04;;;;;;;5.95;3.15;;;21.10;62.00;;;;;;5263267;26;20018;-58
2024/04/10 10:23:29;;;;;;;5.15;2.85;;;21.10;62.00;;;;;;5264976;26;20447;-51
2024/04/10 10:25:55;;;;;;;5.30;3.10;;;21.10;62.10;;;;;;5261338;26;20027;-55
2024/04/10 10:28:21;;;;;;;5.63;2.80;;;21.10;62.10;;;;;;5263287;26;20065;-52
2024/04/10 10:30:47;;;;;;;4.43;2.72;;;21.10;62.10;;;;;;5264435;26;20398;-53
2024/04/10 10:33:17;;;;;;;5.47;3.40;;;21.10;62.10;;;;;;5261417;26;20002;-53
2024/04/10 10:35:42;;;;;;;4.78;2.83;;;21.10;62.10;;;;;;5262994;26;20367;-55
2024/04/10 10:38:08;;;;;;;4.50;3.00;;;21.10;62.00;;;;;;5261780;26;20006;-49
2024/04/10 10:40:34;;;;;;;6.68;3.42;;;21.10;62.00;;;;;;5262413;26;20003;-53
2024/04/10 10:43:04;;;;;;;3.70;2.50;;;21.10;62.00;;;;;;5263299;26;20003;-56
2024/04/10 10:45:34;;;;;;;6.90;3.17;;;21.10;62.00;;;;;;5264589;26;20444;-54
2024/04/10 10:48:02;;;;;;;4.57;2.80;;;21.00;62.10;;;;;;5256141;26;20360;-58
2024/04/10 10:50:29;;;;;;;4.97;2.42;;;21.00;62.10;;;;;;5263537;26;20017;-48
2024/04/10 10:52:56;;;;;;;3.90;2.60;;;21.00;62.80;;;;;;5263113;26;20003;-48
2024/04/10 10:55:23;;;;;;;3.75;2.28;;;21.00;62.10;;;;;;5260912;26;20796;-49
2024/04/10 10:57:48;;;;;;;4.95;2.65;;;21.00;62.10;;;;;;5264083;26;19998;-49
2024/04/10 11:00:16;;;;;;;5.95;2.20;;;21.00;62.20;;;;;;5262084;26;20070;-53
2024/04/10 11:02:43;;;;;;;4.20;2.15;;;21.00;62.10;;;;;;5264339;26;20014;-55
2024/04/10 11:05:12;;;;;;;4.22;2.70;;;21.00;62.10;;;;;;5262324;26;20076;-55
2024/04/10 11:07:38;;;;;;;4.30;2.10;;;21.00;62.00;;;;;;5264280;26;20010;-56
2024/04/10 11:10:08;;;;;;;4.28;2.40;;;21.00;61.90;;;;;;5263714;26;20002;-54
2024/04/10 11:12:34;;;;;;;3.80;2.20;;;21.00;62.60;;;;;;5256151;26;20013;-54
2024/04/10 11:15:08;;;;;;;3.97;2.30;;;21.00;61.90;;;;;;5263713;26;20002;-51
2024/04/10 11:17:34;;;;;;;3.50;2.50;;;21.00;61.90;;;;;;5261824;26;19999;-53
2024/04/10 11:19:59;;;;;;;3.65;2.03;;;21.10;61.90;;;;;;5261873;26;20070;-49
2024/04/10 11:22:25;;;;;;;3.90;2.13;;;21.10;62.00;;;;;;5262258;26;20006;-49
2024/04/10 11:24:53;;;;;;;3.20;2.33;;;21.10;62.00;;;;;;5262703;26;20005;-50
2024/04/10 11:27:19;;;;;;;3.22;1.95;;;21.10;62.00;;;;;;5256858;26;19999;-49
2024/04/10 11:29:45;;;;;;;3.10;1.85;;;21.10;62.30;;;;;;5264101;26;20009;-51
2024/04/10 11:32:10;;;;;;;3.25;2.00;;;21.00;62.10;;;;;;5257975;26;19998;-58
2024/04/10 11:34:36;;;;;;;3.42;1.90;;;21.10;62.30;;;;;;5261514;26;20006;-56
2024/04/10 11:37:02;;;;;;;3.33;2.03;;;21.00;62.30;;;;;;5263863;26;20009;-52
2024/04/10 11:39:28;;;;;;;2.10;1.90;;;21.00;62.20;;;;;;5261128;26;20017;-49
2024/04/10 11:41:53;;;;;;;3.00;2.00;;;21.00;62.20;;;;;;5256947;26;20581;-49
2024/04/10 11:44:19;;;;;;;2.40;1.60;;;21.00;62.30;;;;;;5262772;26;20030;-52
2024/04/10 11:46:46;;;;;;;4.75;1.80;;;21.00;62.20;;;;;;5260628;26;20010;-57
2024/04/10 11:49:12;;;;;;;3.47;2.10;;;21.10;62.10;;;;;;5260998;26;20651;-56
2024/04/10 11:51:37;;;;;;;3.30;1.98;;;21.10;62.10;;;;;;5263049;26;20010;-53
2024/04/10 11:54:03;;;;;;;2.33;1.48;;;21.00;62.30;;;;;;5263377;26;20002;-52
2024/04/10 11:56:28;;;;;;;2.55;1.65;;;21.00;62.20;;;;;;5261862;26;20014;-55
2024/04/10 11:58:54;;;;;;;3.80;1.92;;;21.00;62.10;;;;;;5262352;26;20013;-49
2024/04/10 12:01:19;;;;;;;2.40;1.42;;;21.00;62.10;;;;;;5259501;26;20526;-49
2024/04/10 12:03:46;;;;;;;3.65;1.88;;;21.00;62.20;;;;;;5264789;26;20016;-56
2024/04/10 12:06:12;;;;;;;2.15;1.58;;;21.00;62.50;;;;;;5263644;26;20082;-55
2024/04/10 12:08:37;;;;;;;3.20;1.60;;;21.00;62.30;;;;;;5264534;26;20010;-59
2024/04/10 12:11:05;;;;;;;2.58;1.70;;;21.00;62.30;;;;;;5268179;26;20475;-54
2024/04/10 12:13:32;;;;;;;2.72;1.80;;;21.00;62.20;;;;;;5270539;26;19998;-49
2024/04/10 12:15:58;;;;;;;3.72;1.90;;;21.00;62.30;;;;;;5261129;26;20021;-49
2024/04/10 12:18:23;;;;;;;2.33;1.33;;;21.00;62.20;;;;;;5257707;26;20002;-57
2024/04/10 12:20:49;;;;;;;1.70;1.23;;;21.00;62.20;;;;;;5262085;26;20552;-52
2024/04/10 12:23:14;;;;;;;1.75;1.52;;;21.00;62.20;;;;;;5259790;26;20012;-54
2024/04/10 12:25:40;;;;;;;2.55;1.55;;;21.00;62.10;;;;;;5261075;26;20014;-52
2024/04/10 12:28:05;;;;;;;2.67;1.60;;;21.00;62.10;;;;;;5258561;26;20013;-56
2024/04/10 12:30:31;;;;;;;1.85;1.40;;;21.00;62.10;;;;;;5261610;26;20010;-48
2024/04/10 12:32:56;;;;;;;2.70;1.38;;;21.00;62.10;;;;;;5260864;26;20002;-49
2024/04/10 12:38:06;;;;;;;4.55;1.70;;;21.00;62.10;;;;;;5258836;26;20020;-55
2024/04/10 12:40:33;;;;;;;2.00;1.20;;;21.00;62.10;;;;;;5261129;26;20031;-55
2024/04/10 12:42:58;;;;;;;1.95;1.40;;;21.00;62.10;;;;;;5259898;26;20021;-52
2024/04/10 12:45:23;;;;;;;2.05;1.38;;;20.90;62.10;;;;;;5258763;26;20002;-56